Time;durP1;ratioP1;P1;durP2;ratioP2;P2;SDS_P1;SDS_P2;PMS_P1;PMS_P2;Temp;Humidity;BMP_temperature;BMP_pressure;BME280_temperature;BME280_humidity;BME280_pressure;Samples;Min_cycle;Max_cycle;Signal;HPM_P1;HPM_P2
2024/02/14 00:00:40;;;;;;;;;;;;;;;26.50;37.27;94666.84;5079474;28;8610;-42
2024/02/14 00:03:23;;;;;;;;;;;;;;;26.50;37.78;94677.13;5074133;28;7264;-56
2024/02/14 00:05:52;;;;;;;;;;;;;;;26.49;37.34;94675.66;5053354;28;7204;-56
2024/02/14 00:08:33;;;;;;;;;;;;;;;26.48;37.33;94666.63;5052408;28;8661;-56
2024/02/14 00:11:02;;;;;;;;;;;;;;;26.50;38.09;94677.13;5053057;28;9099;-56
2024/02/14 00:13:33;;;;;;;;;;;;;;;26.47;37.23;94675.41;5075894;28;6940;-41
2024/02/14 00:16:03;;;;;;;;;;;;;;;26.44;37.52;94677.19;5063656;28;7247;-42
2024/02/14 00:18:39;;;;;;;;;;;;;;;26.44;37.83;94676.41;5082065;28;9589;-42
2024/02/14 00:21:05;;;;;;;;;;;;;;;26.49;37.45;94690.16;5073844;28;7229;-42
2024/02/14 00:23:31;;;;;;;;;;;;;;;26.50;37.38;94688.16;5081171;28;7225;-38
2024/02/14 00:25:57;;;;;;;;;;;;;;;26.49;37.16;94687.41;5055554;28;7079;-38
2024/02/14 00:28:26;;;;;;;;;;;;;;;26.49;37.52;94689.44;5089316;28;7057;-38
2024/02/14 00:30:52;;;;;;;;;;;;;;;26.48;37.33;94687.94;5073485;28;9600;-38
2024/02/14 00:33:20;;;;;;;;;;;;;;;26.47;37.00;94695.44;5073931;28;6966;-38
2024/02/14 00:35:49;;;;;;;;;;;;;;;26.48;37.78;94687.94;5077719;28;7207;-38
2024/02/14 00:38:32;;;;;;;;;;;;;;;26.46;37.50;94690.44;5073271;28;7246;-38
2024/02/14 00:41:05;;;;;;;;;;;;;;;26.43;37.47;94689.44;5066429;28;7259;-38
2024/02/14 00:43:32;;;;;;;;;;;;;;;26.42;37.01;94685.22;5082266;28;7187;-38
2024/02/14 00:46:16;;;;;;;;;;;;;;;26.41;37.19;94685.69;5074524;28;7224;-38
2024/02/14 00:48:42;;;;;;;;;;;;;;;26.43;37.32;94685.94;5048726;28;7076;-39
2024/02/14 00:51:13;;;;;;;;;;;;;;;26.43;37.26;94694.22;5071785;28;7233;-38
2024/02/14 00:53:48;;;;;;;;;;;;;;;26.39;37.53;94691.72;5077148;28;8880;-38
2024/02/14 00:56:27;;;;;;;;;;;;;;;26.41;38.12;94707.75;5064449;28;7168;-38
2024/02/14 00:58:53;;;;;;;;;;;;;;;26.40;37.58;94709.03;5053736;28;7263;-38
2024/02/14 01:01:19;;;;;;;;;;;;;;;26.40;37.28;94722.81;5074653;28;7182;-38
2024/02/14 01:03:48;;;;;;;;;;;;;;;26.38;37.43;94726.06;5047480;28;7216;-38
2024/02/14 01:06:20;;;;;;;;;;;;;;;26.39;37.86;94722.06;5070496;28;8745;-38
2024/02/14 01:08:47;;;;;;;;;;;;;;;26.40;37.55;94733.88;5072177;28;6959;-38
2024/02/14 01:11:17;;;;;;;;;;;;;;;26.39;37.67;94727.59;5062362;28;8659;-38
2024/02/14 01:13:45;;;;;;;;;;;;;;;26.40;37.27;94728.34;5074121;28;7066;-38
2024/02/14 01:16:11;;;;;;;;;;;;;;;26.36;37.76;94720.31;5071231;28;9789;-38
2024/02/14 01:18:51;;;;;;;;;;;;;;;26.37;37.60;94730.09;5073723;28;9201;-38
2024/02/14 01:21:51;;;;;;;;;;;;;;;26.36;37.83;94736.13;5084452;28;7303;-38
2024/02/14 01:24:27;;;;;;;;;;;;;;;26.38;37.98;94728.09;4973745;28;7222;-38
2024/02/14 01:26:55;;;;;;;;;;;;;;;26.38;37.38;94728.09;4987442;28;7476;-38
2024/02/14 01:29:21;;;;;;;;;;;;;;;26.34;37.49;94730.38;4991907;28;7001;-38
2024/02/14 01:31:50;;;;;;;;;;;;;;;26.36;37.30;94730.63;5004054;28;9052;-56
2024/02/14 01:34:19;;;;;;;;;;;;;;;26.38;37.58;94736.38;4975546;28;6995;-38
2024/02/14 01:36:47;;;;;;;;;;;;;;;26.36;37.38;94736.88;4983227;28;9231;-38
2024/02/14 01:39:23;;;;;;;;;;;;;;;26.34;37.63;94731.09;4981400;28;7295;-38
2024/02/14 01:41:50;;;;;;;;;;;;;;;26.34;37.53;94720.06;4987928;28;7197;-38
2024/02/14 01:44:18;;;;;;;;;;;;;;;26.37;38.12;94734.88;4996285;28;6924;-38
2024/02/14 01:46:53;;;;;;;;;;;;;;;26.37;37.86;94735.63;4977435;28;7653;-38
2024/02/14 01:49:19;;;;;;;;;;;;;;;26.36;37.38;94731.34;4985753;28;7364;-38
2024/02/14 01:51:51;;;;;;;;;;;;;;;26.36;37.48;94723.06;4993498;28;7127;-38
2024/02/14 01:54:32;;;;;;;;;;;;;;;26.37;37.30;94721.06;4984502;28;8948;-38
2024/02/14 01:57:08;;;;;;;;;;;;;;;26.36;37.67;94719.59;5006246;28;8924;-38
2024/02/14 01:59:35;;;;;;;;;;;;;;;26.34;37.76;94713.84;4987673;28;9093;-38
2024/02/14 02:02:16;;;;;;;;;;;;;;;26.32;37.29;94710.84;5057082;28;6996;-38
2024/02/14 02:04:42;;;;;;;;;;;;;;;26.34;37.91;94702.81;5086338;28;7262;-38
2024/02/14 02:07:19;;;;;;;;;;;;;;;26.34;37.33;94719.34;5068371;28;7132;-38
2024/02/14 02:10:04;;;;;;;;;;;;;;;26.33;37.89;94720.59;5047062;28;7235;-38
2024/02/14 02:12:50;;;;;;;;;;;;;;;26.32;36.99;94719.84;5044865;28;7247;-38
2024/02/14 02:15:27;;;;;;;;;;;;;;;26.33;37.57;94717.84;5063785;28;8845;-38
2024/02/14 02:17:55;;;;;;;;;;;;;;;26.32;37.44;94705.31;5073782;28;7416;-38
2024/02/14 02:20:27;;;;;;;;;;;;;;;26.32;37.75;94708.81;5062726;28;8787;-38
2024/02/14 02:22:53;;;;;;;;;;;;;;;26.34;37.27;94719.34;5075515;28;6976;-38
2024/02/14 02:25:24;;;;;;;;;;;;;;;26.29;37.69;94706.31;5046948;28;7164;-38
2024/02/14 02:27:50;;;;;;;;;;;;;;;26.32;37.47;94710.84;5094317;28;7890;-38
2024/02/14 02:30:16;;;;;;;;;;;;;;;26.28;37.42;94704.81;5071982;28;6959;-38
2024/02/14 02:32:45;;;;;;;;;;;;;;;26.30;37.53;94705.06;5076079;28;8964;-38
2024/02/14 02:35:13;;;;;;;;;;;;;;;26.27;37.69;94697.81;5076774;28;6997;-38
2024/02/14 02:38:13;;;;;;;;;;;;;;;26.26;37.28;94699.06;5074205;28;9197;-38
2024/02/14 02:40:40;;;;;;;;;;;;;;;26.25;37.38;94700.34;5083913;28;7191;-38
2024/02/14 02:43:07;;;;;;;;;;;;;;;26.26;37.20;94702.56;5072843;28;9044;-40
2024/02/14 02:45:33;;;;;;;;;;;;;;;26.25;37.62;94706.59;5063915;28;7241;-40
2024/02/14 02:48:02;;;;;;;;;;;;;;;26.24;37.95;94705.09;5062925;28;6993;-40
2024/02/14 02:50:30;;;;;;;;;;;;;;;26.23;37.77;94697.34;5082145;28;7058;-39
2024/02/14 02:53:07;;;;;;;;;;;;;;;26.21;37.53;94705.38;5074686;28;7173;-40
2024/02/14 02:55:43;;;;;;;;;;;;;;;26.23;37.38;94706.34;5064334;28;9230;-41
2024/02/14 02:58:17;;;;;;;;;;;;;;;26.21;37.30;94694.34;5072956;28;8659;-40
2024/02/14 03:00:44;;;;;;;;;;;;;;;26.20;37.48;94701.84;5051998;28;9137;-40
2024/02/14 03:03:10;;;;;;;;;;;;;;;26.25;37.50;94705.84;5095599;28;6973;-40
2024/02/14 03:05:46;;;;;;;;;;;;;;;26.26;37.33;94699.81;5069196;28;6964;-41
2024/02/14 03:08:25;;;;;;;;;;;;;;;26.25;37.97;94703.84;5046969;28;7351;-41
2024/02/14 03:11:10;;;;;;;;;;;;;;;26.22;37.07;94698.56;5070441;28;7226;-41
2024/02/14 03:13:40;;;;;;;;;;;;;;;26.20;37.61;94701.84;5055243;28;8799;-40
2024/02/14 03:16:18;;;;;;;;;;;;;;;26.20;37.46;94710.13;5074397;28;7800;-40
2024/02/14 03:19:05;;;;;;;;;;;;;;;26.21;37.49;94702.59;5080098;28;6995;-41
2024/02/14 03:21:46;;;;;;;;;;;;;;;26.19;37.80;94707.88;5056827;28;7328;-40
2024/02/14 03:24:14;;;;;;;;;;;;;;;26.23;37.05;94708.38;5058952;28;7016;-39
2024/02/14 03:26:43;;;;;;;;;;;;;;;26.25;37.27;94705.84;5057615;28;7234;-40
2024/02/14 03:29:09;;;;;;;;;;;;;;;26.24;37.00;94704.34;5054618;28;8784;-40
2024/02/14 03:31:35;;;;;;;;;;;;;;;26.25;36.93;94709.38;5054171;28;7123;-40
2024/02/14 03:34:02;;;;;;;;;;;;;;;26.23;37.05;94709.09;5074590;28;9128;-41
2024/02/14 03:36:33;;;;;;;;;;;;;;;26.23;37.31;94711.84;5075917;28;7023;-40
2024/02/14 03:39:03;;;;;;;;;;;;;;;26.25;37.61;94711.38;5044905;28;6976;-39
2024/02/14 03:41:32;;;;;;;;;;;;;;;26.22;36.82;94696.56;5074526;28;9415;-39
2024/02/14 03:44:00;;;;;;;;;;;;;;;26.23;37.36;94705.59;5062011;28;7200;-40
2024/02/14 03:46:30;;;;;;;;;;;;;;;26.23;36.98;94714.59;5054792;28;9459;-40
2024/02/14 03:48:56;;;;;;;;;;;;;;;26.24;36.83;94713.38;5057772;28;6991;-40
2024/02/14 03:51:25;;;;;;;;;;;;;;;26.23;36.70;94713.88;5070056;28;8958;-39
2024/02/14 03:53:52;;;;;;;;;;;;;;;26.19;37.40;94707.88;5073071;28;7246;-38
2024/02/14 03:56:20;;;;;;;;;;;;;;;26.17;37.25;94711.88;5055367;28;7030;-38
2024/02/14 03:58:47;;;;;;;;;;;;;;;26.20;36.98;94706.59;5073486;28;8161;-38
2024/02/14 04:01:13;;;;;;;;;;;;;;;26.20;37.45;94714.88;5068073;28;9120;-38
2024/02/14 04:03:40;;;;;;;;;;;;;;;26.22;37.41;94723.41;5054915;28;9482;-38
2024/02/14 04:06:06;;;;;;;;;;;;;;;26.19;36.76;94719.63;5072022;28;8965;-38
2024/02/14 04:08:59;;;;;;;;;;;;;;;26.20;36.72;94726.66;5075418;28;7004;-40
2024/02/14 04:11:38;;;;;;;;;;;;;;;26.17;37.03;94728.44;5085913;28;7271;-38
2024/02/14 04:14:07;;;;;;;;;;;;;;;26.19;37.31;94721.66;5084874;28;7014;-38
2024/02/14 04:16:36;;;;;;;;;;;;;;;26.16;37.27;94721.41;5069314;28;6998;-38
2024/02/14 04:19:04;;;;;;;;;;;;;;;26.16;36.73;94724.16;5074791;28;7277;-38
2024/02/14 04:21:50;;;;;;;;;;;;;;;26.13;37.27;94716.91;5057560;28;7180;-38
2024/02/14 04:24:19;;;;;;;;;;;;;;;26.14;36.65;94723.91;5045915;28;7367;-38
2024/02/14 04:26:45;;;;;;;;;;;;;;;26.14;37.57;94726.66;5081776;28;6989;-38
2024/02/14 04:29:11;;;;;;;;;;;;;;;26.15;36.92;94719.91;5057838;28;7019;-38
2024/02/14 04:31:37;;;;;;;;;;;;;;;26.15;36.87;94717.16;5061824;28;7370;-38
2024/02/14 04:34:03;;;;;;;;;;;;;;;26.17;37.39;94717.41;5067097;28;7232;-38
2024/02/14 04:36:33;;;;;;;;;;;;;;;26.16;37.08;94710.38;5081062;28;6985;-38
2024/02/14 04:39:01;;;;;;;;;;;;;;;26.19;37.02;94707.88;5043725;28;7152;-38
2024/02/14 04:41:27;;;;;;;;;;;;;;;26.16;37.43;94721.41;5080242;28;7251;-38
2024/02/14 04:43:52;;;;;;;;;;;;;;;26.15;37.08;94713.63;5063912;28;6963;-38
2024/02/14 04:46:22;;;;;;;;;;;;;;;26.16;36.69;94724.16;5071100;28;7168;-38
2024/02/14 04:48:58;;;;;;;;;;;;;;;26.14;36.93;94721.16;5076392;28;7953;-38
2024/02/14 04:51:59;;;;;;;;;;;;;;;26.17;37.42;94722.91;5073564;28;7273;-38
2024/02/14 04:54:36;;;;;;;;;;;;;;;26.16;37.64;94726.19;5010174;28;7399;-38
2024/02/14 04:57:04;;;;;;;;;;;;;;;26.16;37.56;94732.44;4984304;28;7100;-39
2024/02/14 04:59:38;;;;;;;;;;;;;;;26.16;36.86;94731.69;5025721;28;8785;-38
2024/02/14 05:02:17;;;;;;;;;;;;;;;26.15;37.03;94736.47;4980114;28;7282;-41
2024/02/14 05:04:55;;;;;;;;;;;;;;;26.15;37.57;94736.47;5024475;28;7293;-41
2024/02/14 05:07:30;;;;;;;;;;;;;;;26.18;37.17;94731.94;5004143;28;9086;-41
2024/02/14 05:10:09;;;;;;;;;;;;;;;26.15;37.25;94738.47;5003229;28;7226;-42
2024/02/14 05:12:43;;;;;;;;;;;;;;;26.12;37.43;94731.94;5004728;28;7205;-40
2024/02/14 05:15:18;;;;;;;;;;;;;;;26.13;36.96;94744.47;5000167;28;8965;-42
2024/02/14 05:17:56;;;;;;;;;;;;;;;26.13;36.82;94741.72;4990314;28;8772;-40
2024/02/14 05:20:26;;;;;;;;;;;;;;;26.12;37.35;94740.22;5008535;28;7397;-40
2024/02/14 05:22:57;;;;;;;;;;;;;;;26.10;37.17;94750.25;5012538;28;8717;-40
2024/02/14 05:25:26;;;;;;;;;;;;;;;26.12;37.47;94762.25;5004563;28;7613;-40
2024/02/14 05:27:55;;;;;;;;;;;;;;;26.12;37.53;94758.78;5013519;28;7870;-41
2024/02/14 05:30:24;;;;;;;;;;;;;;;26.13;36.84;94768.53;5056246;28;7284;-41
2024/02/14 05:32:52;;;;;;;;;;;;;;;26.09;37.21;94757.03;5064475;28;7325;-41
2024/02/14 05:35:31;;;;;;;;;;;;;;;26.10;36.80;94755.75;5076580;28;6981;-41
2024/02/14 05:38:00;;;;;;;;;;;;;;;26.08;37.60;94763.75;5075541;28;6994;-40
2024/02/14 05:40:27;;;;;;;;;;;;;;;26.06;36.94;94753.25;5056124;28;8755;-42
2024/02/14 05:43:07;;;;;;;;;;;;;;;26.07;37.07;94765.03;5073069;28;8673;-42
2024/02/14 05:45:41;;;;;;;;;;;;;;;26.06;36.93;94760.75;5070477;28;7066;-41
2024/02/14 05:48:21;;;;;;;;;;;;;;;26.04;36.98;94766.78;5069419;28;6991;-40
2024/02/14 05:50:53;;;;;;;;;;;;;;;26.05;37.34;94765.53;5071570;28;7266;-41
2024/02/14 05:53:33;;;;;;;;;;;;;;;26.04;36.96;94764.03;5078910;28;7161;-42
2024/02/14 05:55:59;;;;;;;;;;;;;;;26.05;37.61;94760.03;5065798;28;7302;-42
2024/02/14 05:58:28;;;;;;;;;;;;;;;26.04;37.58;94755.75;5059648;28;9156;-40
2024/02/14 06:00:55;;;;;;;;;;;;;;;26.07;36.91;94763.03;5065651;28;9448;-42
2024/02/14 06:03:35;;;;;;;;;;;;;;;26.07;37.76;94759.50;5097063;28;8794;-42
2024/02/14 06:06:27;;;;;;;;;;;;;;;26.08;37.25;94763.75;5071864;28;9122;-42
2024/02/14 06:08:54;;;;;;;;;;;;;;;26.06;37.48;94761.50;5065105;28;6992;-42
2024/02/14 06:11:53;;;;;;;;;;;;;;;26.07;37.15;94765.03;5083316;28;9342;-42
2024/02/14 06:14:36;;;;;;;;;;;;;;;26.02;37.62;94772.03;4996798;28;6891;-42
2024/02/14 06:17:05;;;;;;;;;;;;;;;26.04;37.51;94771.53;4979260;28;7159;-41
2024/02/14 06:20:07;;;;;;;;;;;;;;;26.05;37.23;94768.28;4996004;28;7207;-42
2024/02/14 06:22:51;;;;;;;;;;;;;;;26.06;37.53;94772.53;4921557;29;8241;-41
2024/02/14 06:25:20;;;;;;;;;;;;;;;26.07;37.28;94778.81;4920997;28;7316;-42
2024/02/14 06:27:49;;;;;;;;;;;;;;;26.05;37.24;94765.53;4932190;29;7628;-41
2024/02/14 06:30:16;;;;;;;;;;;;;;;26.09;37.36;94776.31;4926031;29;8714;-42
2024/02/14 06:32:42;;;;;;;;;;;;;;;26.09;37.66;94779.84;4916449;29;7471;-42
2024/02/14 06:35:08;;;;;;;;;;;;;;;26.10;37.95;94775.06;4933111;28;7369;-42
2024/02/14 06:37:59;;;;;;;;;;;;;;;26.11;37.92;94782.06;4918897;29;7182;-42
2024/02/14 06:40:29;;;;;;;;;;;;;;;26.10;38.01;94788.84;4934559;29;7955;-42
2024/02/14 06:42:55;;;;;;;;;;;;;;;26.07;37.64;94790.59;4940062;28;7242;-41
2024/02/14 06:45:23;;;;;;;;;;;;;;;26.07;38.24;94793.34;4942864;28;9323;-41
2024/02/14 06:47:51;;;;;;;;;;;;;;;26.09;37.37;94799.13;4956532;28;8655;-43
2024/02/14 06:50:17;;;;;;;;;;;;;;;26.08;37.31;94800.38;4951698;28;7292;-43
2024/02/14 06:52:44;;;;;;;;;;;;;;;26.14;37.65;94800.38;4957228;28;7112;-43
2024/02/14 06:55:13;;;;;;;;;;;;;;;26.11;38.26;94799.38;4983706;28;7298;-42
2024/02/14 06:57:39;;;;;;;;;;;;;;;26.09;37.68;94793.63;4972561;28;6968;-41
2024/02/14 07:00:08;;;;;;;;;;;;;;;26.09;37.71;94792.88;5059113;28;6976;-42
2024/02/14 07:02:39;;;;;;;;;;;;;;;26.12;37.28;94786.34;5072805;28;7160;-41
2024/02/14 07:05:14;;;;;;;;;;;;;;;26.11;37.67;94795.88;5060421;28;6972;-40
2024/02/14 07:07:42;;;;;;;;;;;;;;;26.11;37.98;94799.38;5081256;28;7264;-42
2024/02/14 07:10:49;;;;;;;;;;;;;;;26.12;38.22;94803.63;5057648;28;9511;-43
2024/02/14 07:13:19;;;;;;;;;;;;;;;26.14;37.77;94803.13;4969248;28;7386;-57
2024/02/14 07:16:01;;;;;;;;;;;;;;;26.14;37.83;94803.13;4974379;28;7304;-56
2024/02/14 07:18:42;;;;;;;;;;;;;;;26.11;37.50;94802.13;4980380;28;7250;-56
2024/02/14 07:21:13;;;;;;;;;;;;;;;26.10;37.05;94797.88;4988753;28;7276;-56
2024/02/14 07:23:51;;;;;;;;;;;;;;;26.11;37.43;94796.63;4961798;28;7266;-56
2024/02/14 07:26:20;;;;;;;;;;;;;;;26.10;37.38;94794.34;4965377;28;9046;-56
2024/02/14 07:28:46;;;;;;;;;;;;;;;26.10;36.91;94786.84;4946680;28;7005;-56
2024/02/14 07:31:14;;;;;;;;;;;;;;;26.10;37.42;94799.88;4969951;28;9258;-57
2024/02/14 07:33:40;;;;;;;;;;;;;;;26.08;36.93;94803.13;4974403;28;6999;-56
2024/02/14 07:36:08;;;;;;;;;;;;;;;26.09;37.27;94790.88;4951574;28;7121;-56
2024/02/14 07:38:43;;;;;;;;;;;;;;;26.08;37.33;94794.84;4965652;28;7199;-56
2024/02/14 07:41:09;;;;;;;;;;;;;;;26.05;36.90;94792.34;4962274;28;8483;-56
2024/02/14 07:43:51;;;;;;;;;;;;;;;26.07;37.14;94796.09;4986021;28;7169;-56
2024/02/14 07:46:33;;;;;;;;;;;;;;;26.00;37.38;94784.81;5056262;28;7444;-56
2024/02/14 07:49:08;;;;;;;;;;;;;;;26.06;37.26;94797.34;5057638;28;6994;-56
2024/02/14 07:51:39;;;;;;;;;;;;;;;26.06;36.77;94788.31;5075178;28;7602;-56
2024/02/14 07:54:14;;;;;;;;;;;;;;;26.07;37.34;94790.59;5067408;28;9196;-56
2024/02/14 07:56:43;;;;;;;;;;;;;;;26.08;37.12;94797.63;5046292;28;7275;-55
2024/02/14 07:59:10;;;;;;;;;;;;;;;26.09;37.28;94804.66;5068465;28;10477;-55
2024/02/14 08:01:36;;;;;;;;;;;;;;;26.10;37.08;94794.34;5074027;28;7892;-54
2024/02/14 08:04:06;;;;;;;;;;;;;;;26.09;37.44;94788.09;5051203;28;7238;-54
2024/02/14 08:06:41;;;;;;;;;;;;;;;26.14;37.73;94792.09;5057102;28;7528;-55
2024/02/14 08:09:19;;;;;;;;;;;;;;;26.12;37.34;94780.84;5055863;28;7055;-55
2024/02/14 08:11:53;;;;;;;;;;;;;;;26.10;37.16;94783.31;5073910;28;7291;-56
2024/02/14 08:14:28;;;;;;;;;;;;;;;26.12;36.75;94780.84;5072067;28;7263;-56
2024/02/14 08:16:56;;;;;;;;;;;;;;;26.12;37.55;94783.59;5059214;28;7027;-55
2024/02/14 08:19:27;;;;;;;;;;;;;;;26.12;37.74;94773.28;5077449;28;6987;-56
2024/02/14 08:22:02;;;;;;;;;;;;;;;26.13;36.99;94772.06;5073449;28;8785;-56
2024/02/14 08:24:35;;;;;;;;;;;;;;;26.14;36.83;94781.81;5056203;28;6995;-55
2024/02/14 08:27:01;;;;;;;;;;;;;;;26.12;36.76;94781.56;5076804;28;7338;-55
2024/02/14 08:29:27;;;;;;;;;;;;;;;26.10;37.22;94780.56;5051426;28;7400;-56
2024/02/14 08:31:53;;;;;;;;;;;;;;;26.11;36.48;94785.59;5072801;28;6984;-56
2024/02/14 08:34:19;;;;;;;;;;;;;;;26.11;36.82;94791.09;5085993;28;8698;-55
2024/02/14 08:37:08;;;;;;;;;;;;;;;26.14;36.70;94790.06;5053054;28;7407;-55
2024/02/14 08:39:44;;;;;;;;;;;;;;;26.14;37.02;94784.56;5070759;28;6989;-55
2024/02/14 08:42:13;;;;;;;;;;;;;;;26.13;36.55;94783.06;5072871;28;7631;-55
2024/02/14 08:44:39;;;;;;;;;;;;;;;26.16;36.56;94782.06;5072319;28;7334;-53
2024/02/14 08:47:11;;;;;;;;;;;;;;;26.21;36.72;94788.09;5058857;28;7107;-55
2024/02/14 08:49:42;;;;;;;;;;;;;;;26.23;36.51;94791.09;5069545;28;8939;-56
2024/02/14 08:52:10;;;;;;;;;;;;;;;26.22;36.91;94789.56;5055909;28;9063;-56
2024/02/14 08:54:37;;;;;;;;;;;;;;;26.23;36.85;94791.09;5045824;28;7146;-56
2024/02/14 08:57:13;;;;;;;;;;;;;;;26.21;37.31;94788.09;5070082;28;6989;-56
2024/02/14 08:59:43;;;;;;;;;;;;;;;26.26;37.07;94792.81;5055521;28;7183;-54
2024/02/14 09:02:18;;;;;;;;;;;;;;;26.34;36.76;94791.06;5058231;28;7266;-47
2024/02/14 09:05:30;;;;;;;;;;;;;;;26.38;36.50;94797.78;5071290;28;9105;-47
2024/02/14 09:07:59;;;;;;;;;;;;;;;26.40;37.19;94795.28;5056464;28;7377;-54
2024/02/14 09:10:25;;;;;;;;;;;;;;;26.37;37.16;94795.53;5070089;28;8478;-52
2024/02/14 09:12:57;;;;;;;;;;;;;;;26.37;36.53;94801.06;5058700;28;7238;-52
2024/02/14 09:15:32;;;;;;;;;;;;;;;26.42;36.75;94814.84;5057798;28;8214;-53
2024/02/14 09:18:09;;;;;;;;;;;;;;;26.44;37.29;94806.06;5062224;28;7248;-49
2024/02/14 09:20:39;;;;;;;;;;;;;;;26.45;37.12;94813.06;5052822;28;7192;-52
2024/02/14 09:23:08;;;;;;;;;;;;;;;26.42;37.11;94819.59;5037065;28;8725;-53
2024/02/14 09:25:44;;;;;;;;;;;;;;;26.40;36.97;94811.84;5072070;28;6976;-54
2024/02/14 09:28:14;;;;;;;;;;;;;;;26.39;36.80;94815.09;5071316;28;9219;-52
2024/02/14 09:30:40;;;;;;;;;;;;;;;26.42;36.78;94814.09;5048495;28;7191;-52
2024/02/14 09:33:05;;;;;;;;;;;;;;;26.39;37.07;94812.34;5072428;28;7213;-38
2024/02/14 09:35:44;;;;;;;;;;;;;;;26.38;36.83;94814.34;5076762;28;7357;-38
2024/02/14 09:38:26;;;;;;;;;;;;;;;26.39;37.04;94815.09;5042810;28;7085;-38
2024/02/14 09:41:35;;;;;;;;;;;;;;;26.40;36.99;94819.38;5056723;28;7639;-38
2024/02/14 09:44:07;;;;;;;;;;;;;;;26.40;44.16;94819.38;5044892;28;6972;-38
2024/02/14 09:46:35;;;;;;;;;;;;;;;26.46;43.18;94822.84;5067578;28;8769;-39
2024/02/14 09:49:03;;;;;;;;;;;;;;;26.47;41.60;94816.81;5072160;28;6999;-38
2024/02/14 09:51:31;;;;;;;;;;;;;;;26.48;41.55;94812.06;5044087;28;6961;-38
2024/02/14 09:54:10;;;;;;;;;;;;;;;26.49;41.02;94810.81;5054800;28;6984;-38
2024/02/14 09:56:53;;;;;;;;;;;;;;;26.45;40.42;94810.31;5041036;28;6936;-38
2024/02/14 09:59:32;;;;;;;;;;;;;;;26.45;40.02;94813.81;5071465;28;7031;-38
2024/02/14 10:02:04;;;;;;;;;;;;;;;26.44;40.49;94806.06;5058444;28;7192;-39
2024/02/14 10:04:32;;;;;;;;;;;;;;;26.44;40.19;94817.09;5068654;28;8761;-38
2024/02/14 10:07:01;;;;;;;;;;;;;;;26.42;39.94;94811.31;5057487;28;7264;-37
2024/02/14 10:09:40;;;;;;;;;;;;;;;26.43;40.23;94816.34;5050010;28;7007;-38
2024/02/14 10:12:11;;;;;;;;;;;;;;;26.46;39.58;94815.34;5050815;28;7178;-38
2024/02/14 10:14:38;;;;;;;;;;;;;;;26.40;39.42;94805.56;5059022;28;8717;-38
2024/02/14 10:17:04;;;;;;;;;;;;;;;26.42;38.70;94816.84;5049040;28;7539;-38
2024/02/14 10:19:32;;;;;;;;;;;;;;;26.41;39.41;94812.56;5051094;28;7603;-38
2024/02/14 10:22:00;;;;;;;;;;;;;;;26.43;39.46;94815.56;5057393;28;9036;-38
2024/02/14 10:24:28;;;;;;;;;;;;;;;26.41;38.98;94818.09;5065998;28;7233;-38
2024/02/14 10:26:57;;;;;;;;;;;;;;;26.41;39.08;94821.59;5064056;28;7241;-38
2024/02/14 10:29:24;;;;;;;;;;;;;;;26.39;38.05;94824.13;5073251;28;8795;-38
2024/02/14 10:31:50;;;;;;;;;;;;;;;26.42;38.22;94825.13;5072663;28;9273;-38
2024/02/14 10:34:16;;;;;;;;;;;;;;;26.42;38.37;94833.41;5077245;28;7234;-39
2024/02/14 10:37:00;;;;;;;;;;;;;;;26.41;38.19;94832.63;5077193;28;6860;-38
2024/02/14 10:39:36;;;;;;;;;;;;;;;26.44;38.06;94833.63;5062982;28;7458;-38
2024/02/14 10:42:03;;;;;;;;;;;;;;;26.43;37.59;94829.38;5060305;28;8817;-39
2024/02/14 10:44:37;;;;;;;;;;;;;;;26.43;37.74;94832.88;5079721;28;8621;-38
2024/02/14 10:47:09;;;;;;;;;;;;;;;26.41;37.47;94829.13;5064511;28;7227;-38
2024/02/14 10:49:39;;;;;;;;;;;;;;;26.40;37.26;94828.41;5073459;28;8052;-38
2024/02/14 10:52:08;;;;;;;;;;;;;;;26.41;37.86;94842.91;5067676;28;7201;-38
2024/02/14 10:54:59;;;;;;;;;;;;;;;26.42;37.81;94841.66;5074130;28;7055;-38
2024/02/14 10:57:29;;;;;;;;;;;;;;;26.42;37.60;94844.44;5054414;28;6996;-38
2024/02/14 10:59:57;;;;;;;;;;;;;;;26.41;37.47;94840.16;5060073;28;6973;-38
2024/02/14 11:02:24;;;;;;;;;;;;;;;26.43;37.73;94837.63;5072967;28;6983;-38
2024/02/14 11:04:53;;;;;;;;;;;;;;;26.44;37.40;94834.41;5069183;28;7223;-38
2024/02/14 11:07:22;;;;;;;;;;;;;;;26.46;37.63;94839.41;5071188;28;8212;-38
2024/02/14 11:10:02;;;;;;;;;;;;;;;26.47;37.33;94829.88;5070556;28;9041;-38
2024/02/14 11:12:34;;;;;;;;;;;;;;;26.49;37.39;94830.84;5069312;28;7818;-38
2024/02/14 11:15:01;;;;;;;;;;;;;;;26.49;37.21;94832.88;5055120;28;7016;-38
2024/02/14 11:17:28;;;;;;;;;;;;;;;26.47;37.65;94818.84;5064679;28;7139;-38
2024/02/14 11:19:54;;;;;;;;;;;;;;;26.48;37.72;94832.13;5080240;28;8803;-38
2024/02/14 11:22:36;;;;;;;;;;;;;;;26.48;37.37;94823.09;5078565;28;7277;-38
2024/02/14 11:25:07;;;;;;;;;;;;;;;26.50;38.08;94823.34;5074721;28;7263;-38
2024/02/14 11:27:33;;;;;;;;;;;;;;;26.49;36.95;94827.38;5060995;28;9621;-38
2024/02/14 11:30:03;;;;;;;;;;;;;;;26.50;37.36;94834.38;5058019;28;7456;-38
2024/02/14 11:32:29;;;;;;;;;;;;;;;26.51;37.39;94827.59;5078417;28;9426;-38
2024/02/14 11:35:00;;;;;;;;;;;;;;;26.47;37.32;94825.09;5073825;28;7234;-38
2024/02/14 11:37:31;;;;;;;;;;;;;;;26.44;36.99;94831.63;5072007;28;9088;-38
2024/02/14 11:40:03;;;;;;;;;;;;;;;26.45;37.47;94824.84;5078118;28;7332;-38
2024/02/14 11:43:01;;;;;;;;;;;;;;;26.45;37.52;94822.09;5046513;28;7915;-38
2024/02/14 11:45:41;;;;;;;;;;;;;;;26.46;37.47;94814.56;5057821;28;7233;-38
2024/02/14 11:48:11;;;;;;;;;;;;;;;26.47;37.39;94807.81;5056524;28;7408;-38
2024/02/14 11:50:47;;;;;;;;;;;;;;;26.45;36.95;94818.56;5074574;28;9613;-38
2024/02/14 11:53:47;;;;;;;;;;;;;;;26.43;37.33;94805.28;5072960;28;7327;-39
2024/02/14 11:56:25;;;;;;;;;;;;;;;26.43;37.06;94810.06;5017482;28;7286;-40
2024/02/14 11:58:58;;;;;;;;;;;;;;;26.45;37.38;94815.81;5013569;28;7467;-39
2024/02/14 12:01:26;;;;;;;;;;;;;;;26.47;36.92;94814.06;5024270;28;7253;-40
2024/02/14 12:04:44;;;;;;;;;;;;;;;26.48;37.01;94815.56;5021308;28;9129;-39
2024/02/14 12:07:36;;;;;;;;;;;;;;;26.51;37.28;94808.28;5018713;28;7933;-39
2024/02/14 12:10:12;;;;;;;;;;;;;;;26.53;37.04;94811.28;5033491;28;8641;-40
2024/02/14 12:12:38;;;;;;;;;;;;;;;26.54;37.35;94821.06;5018350;28;7252;-39
2024/02/14 12:15:18;;;;;;;;;;;;;;;26.58;37.33;94814.03;5028164;28;7033;-39
2024/02/14 12:18:03;;;;;;;;;;;;;;;26.60;36.81;94824.56;4996092;28;9082;-39
2024/02/14 12:20:50;;;;;;;;;;;;;;;26.62;37.03;94820.03;5022347;28;8867;-40
2024/02/14 12:23:31;;;;;;;;;;;;;;;26.62;36.71;94822.06;4996618;28;9086;-39
2024/02/14 12:26:02;;;;;;;;;;;;;;;26.64;36.76;94819.53;5012440;28;7093;-40
2024/02/14 12:28:32;;;;;;;;;;;;;;;26.63;36.61;94813.25;5019643;28;7221;-40
2024/02/14 12:30:58;;;;;;;;;;;;;;;26.66;36.77;94817.00;5025847;28;6995;-39
2024/02/14 12:33:26;;;;;;;;;;;;;;;26.64;36.62;94814.03;5070825;28;6997;-40
2024/02/14 12:36:06;;;;;;;;;;;;;;;26.65;37.18;94815.50;5067368;28;8465;-39
2024/02/14 12:38:40;;;;;;;;;;;;;;;26.65;36.90;94807.97;5054307;28;9707;-39
2024/02/14 12:41:08;;;;;;;;;;;;;;;26.67;36.48;94810.22;5064243;28;7067;-39
2024/02/14 12:43:36;;;;;;;;;;;;;;;26.63;36.58;94806.97;5072571;28;8772;-39
2024/02/14 12:46:04;;;;;;;;;;;;;;;26.67;36.71;94804.72;5082083;28;6977;-39
2024/02/14 12:48:35;;;;;;;;;;;;;;;26.63;36.80;94807.75;5053359;28;6977;-40
2024/02/14 12:51:08;;;;;;;;;;;;;;;26.67;37.13;94807.47;5048488;28;7128;-39
2024/02/14 12:54:14;;;;;;;;;;;;;;;26.67;36.81;94801.94;5069284;28;7086;-39
2024/02/14 12:56:52;;;;;;;;;;;;;;;26.65;36.77;94794.19;5058042;28;9005;-41
2024/02/14 12:59:38;;;;;;;;;;;;;;;26.68;36.75;94800.69;5076788;28;9090;-39
2024/02/14 13:02:06;;;;;;;;;;;;;;;26.71;37.24;94796.91;5081356;28;7212;-54
2024/02/14 13:04:55;;;;;;;;;;;;;;;26.72;36.61;94798.41;5056161;28;7264;-52
2024/02/14 13:07:26;;;;;;;;;;;;;;;26.71;37.00;94796.91;5073227;28;7086;-54
2024/02/14 13:09:58;;;;;;;;;;;;;;;26.71;36.73;94791.38;5060419;28;7209;-52
2024/02/14 13:12:27;;;;;;;;;;;;;;;26.72;36.74;94793.66;5055673;28;7280;-54
2024/02/14 13:15:12;;;;;;;;;;;;;;;26.71;36.92;94792.16;5073180;28;8059;-54
2024/02/14 13:17:45;;;;;;;;;;;;;;;26.73;36.46;94795.19;5055978;28;9275;-52
2024/02/14 13:20:19;;;;;;;;;;;;;;;26.76;36.78;94790.66;5073807;28;7053;-52
2024/02/14 13:23:03;;;;;;;;;;;;;;;26.77;36.44;94781.13;5071710;28;6977;-53
2024/02/14 13:25:51;;;;;;;;;;;;;;;26.80;36.50;94785.59;5072070;28;9458;-52
2024/02/14 13:28:17;;;;;;;;;;;;;;;26.79;36.98;94784.88;5072076;28;9391;-54